Погода Жуазеиринона 2 недели

Параиба, Бразилия

16 - 29 июля
  • 16июля
    Сегодня
    +21°
    +33°
    Облачно с прояснениями
    ВремяПогодаТемператураВлажностьДавлениеВетер, м/сВероятность осадков
    00:00Ясно и безоблачно+24°C70 %744 мм4.0 м/с5 %
    03:00Ясно и безоблачно+21°C81 %743 мм2.9 м/с5 %
    06:00Практически безоблачно+21°C82 %744 мм2.6 м/с4 %
    09:00Ясно и безоблачно+26°C56 %745 мм3.5 м/с5 %
    12:00Облачно с прояснениями+30°C33 %744 мм6.4 м/с5 %
    15:00Облачно с прояснениями+33°C32 %742 мм6.3 м/с5 %
    18:00Небольшая облачность+30°C42 %742 мм2.9 м/с5 %
    21:00Ясно и безоблачно+25°C50 %744 мм5.3 м/с2 %
  • 17июля
    Среда
    +21°
    +33°
    Практически безоблачно
    ВремяПогодаТемператураВлажностьДавлениеВетер, м/сВероятность осадков
    00:00Ясно и безоблачно+25°C69 %745 мм3.7 м/с4 %
    03:00Ясно и безоблачно+22°C80 %744 мм2.7 м/с2 %
    06:00Ясно и безоблачно+21°C86 %744 мм1.7 м/с4 %
    09:00Пасмурно, сплошная облачность+26°C58 %745 мм5.8 м/с10 %
    12:00Небольшая облачность+31°C35 %743 мм5.7 м/с3 %
    15:00Практически безоблачно+33°C30 %741 мм4.9 м/с2 %
    18:00Облачно с прояснениями+29°C37 %741 мм2.8 м/с5 %
    21:00Небольшая облачность+26°C47 %743 мм5.3 м/с10 %
  • 18июля
    Четверг
    +22°
    +34°
    Практически безоблачно
    ВремяПогодаТемператураВлажностьДавлениеВетер, м/сВероятность осадков
    00:00Практически безоблачно+26°C60 %743 мм4.2 м/с3 %
    03:00Ясно и безоблачно+23°C72 %742 мм3.0 м/с4 %
    06:00Ясно и безоблачно+21°C74 %743 мм2.6 м/с2 %
    09:00Ясно и безоблачно+26°C56 %744 мм4.4 м/с4 %
    12:00Ясно и безоблачно+31°C36 %743 мм3.7 м/с2 %
    15:00Практически безоблачно+34°C28 %740 мм3.8 м/с5 %
    18:00Облачно с прояснениями+32°C31 %741 мм2.4 м/с5 %
    21:00Небольшая облачность+26°C44 %743 мм4.9 м/с10 %
  • 19июля
    Пятница
    +21°
    +35°
    Практически безоблачно
    ВремяПогодаТемператураВлажностьДавлениеВетер, м/сВероятность осадков
    00:00Ясно и безоблачно+26°C61 %744 мм3.3 м/с11 %
    03:00Ясно и безоблачно+23°C73 %743 мм2.2 м/с5 %
    06:00Ясно и безоблачно+22°C79 %744 мм2.9 м/с5 %
    09:00Ясно и безоблачно+27°C57 %745 мм4.3 м/с5 %
    12:00Практически безоблачно+32°C35 %743 мм4.3 м/с4 %
    15:00Практически безоблачно+34°C30 %741 мм5.0 м/с5 %
    18:00Практически безоблачно+32°C35 %742 мм5.1 м/с5 %
    21:00Практически безоблачно+27°C52 %744 мм6.7 м/с44 %
  • 20июля
    Суббота
    +21°
    +34°
    Облачно с прояснениями
    ВремяПогодаТемператураВлажностьДавлениеВетер, м/сВероятность осадков
    00:00Ясно и безоблачно+26°C63 %744 мм4.8 м/с13 %
    03:00Ясно и безоблачно+23°C71 %743 мм3.9 м/с5 %
    06:00Ясно и безоблачно+22°C74 %744 мм3.6 м/с5 %
    09:00Практически безоблачно+28°C50 %745 мм6.0 м/с5 %
    12:00Практически безоблачно+31°C34 %743 мм4.7 м/с5 %
    15:00Облачно с прояснениями+33°C30 %741 мм4.8 м/с5 %
    18:00Облачно с прояснениями+31°C38 %742 мм6.3 м/с4 %
    21:00Облачно с прояснениями+26°C56 %744 мм6.7 м/с36 %
Мы используем cookies
Соглашаюсь